createdAt,value
2022-08-31T00:01:54.127Z,100485.22
2022-08-31T00:04:21.596Z,100468.00
2022-08-31T00:06:53.746Z,100467.31
2022-08-31T00:09:21.971Z,100449.25
2022-08-31T00:11:49.472Z,100445.00
2022-08-31T00:14:16.840Z,100460.78
2022-08-31T00:16:44.774Z,100470.75
2022-08-31T00:19:12.616Z,100482.28
2022-08-31T00:21:40.074Z,100491.81
2022-08-31T00:24:08.515Z,100486.91
2022-08-31T00:26:36.399Z,100488.63
2022-08-31T00:29:04.230Z,100492.03
2022-08-31T00:31:32.015Z,100493.72
2022-08-31T00:33:59.482Z,100508.47
2022-08-31T00:36:26.961Z,100517.13
2022-08-31T00:38:54.479Z,100535.88
2022-08-31T00:41:22.691Z,100550.44
2022-08-31T00:43:51.123Z,100555.78
2022-08-31T00:46:20.588Z,100546.25
2022-08-31T00:49:03.428Z,100544.94
2022-08-31T00:51:32.148Z,100558.94
2022-08-31T00:53:59.816Z,100552.97
2022-08-31T00:56:27.164Z,100551.16
2022-08-31T00:58:55.146Z,100550.28
2022-08-31T01:01:23.022Z,100560.06
2022-08-31T01:03:50.404Z,100559.94
2022-08-31T01:06:18.056Z,100553.28
2022-08-31T01:08:46.019Z,100539.59
2022-08-31T01:11:15.683Z,100525.28
2022-08-31T01:13:45.128Z,100527.09
2022-08-31T01:16:17.454Z,100501.78
2022-08-31T01:18:45.485Z,100488.59
2022-08-31T01:21:15.892Z,100480.97
2022-08-31T01:23:43.504Z,100473.41
2022-08-31T01:26:11.967Z,100491.31
2022-08-31T01:28:39.591Z,100493.88
2022-08-31T01:31:11.450Z,100475.59
2022-08-31T01:33:39.352Z,100457.81
2022-08-31T01:36:07.241Z,100453.66
2022-08-31T01:38:35.236Z,100450.69
2022-08-31T01:41:03.325Z,100445.88
2022-08-31T01:43:33.955Z,100439.59
2022-08-31T01:46:05.285Z,100443.06
2022-08-31T01:48:41.288Z,100452.03
2022-08-31T01:51:10.727Z,100449.38
2022-08-31T01:53:42.674Z,100445.56
2022-08-31T01:56:20.222Z,100441.38
2022-08-31T01:58:47.802Z,100445.88
2022-08-31T02:01:34.706Z,100455.84
2022-08-31T02:04:03.530Z,100453.69
2022-08-31T02:06:31.129Z,100456.84
2022-08-31T02:08:58.775Z,100459.31
2022-08-31T02:11:26.238Z,100448.69
2022-08-31T02:13:53.855Z,100448.03
2022-08-31T02:16:21.269Z,100448.88
2022-08-31T02:18:49.077Z,100440.91
2022-08-31T02:21:16.456Z,100448.72
2022-08-31T02:23:46.022Z,100459.19
2022-08-31T02:26:14.398Z,100451.03
2022-08-31T02:28:45.838Z,100446.19
2022-08-31T02:31:14.736Z,100445.69
2022-08-31T02:33:50.119Z,100451.03
2022-08-31T02:36:21.452Z,100450.53
2022-08-31T02:38:49.089Z,100447.50
2022-08-31T02:41:18.732Z,100454.84
2022-08-31T02:43:46.140Z,100448.03
2022-08-31T02:46:13.994Z,100456.66
2022-08-31T02:48:46.908Z,100445.19
2022-08-31T02:51:18.527Z,100450.19
2022-08-31T02:53:47.726Z,100455.66
2022-08-31T02:56:15.608Z,100452.84
2022-08-31T02:58:43.069Z,100452.69
2022-08-31T03:01:11.222Z,100446.53
2022-08-31T03:03:39.244Z,100448.53
2022-08-31T03:06:07.589Z,100449.19
2022-08-31T03:08:35.089Z,100451.53
2022-08-31T03:11:02.929Z,100454.34
2022-08-31T03:13:30.740Z,100453.00
2022-08-31T03:15:58.619Z,100450.84
2022-08-31T03:18:26.160Z,100453.69
2022-08-31T03:20:53.697Z,100465.63
2022-08-31T03:23:22.260Z,100462.66
2022-08-31T03:25:49.877Z,100467.72
2022-08-31T03:28:17.421Z,100462.72
2022-08-31T03:31:00.284Z,100468.09
2022-08-31T03:33:28.158Z,100469.50
2022-08-31T03:35:56.705Z,100463.47
2022-08-31T03:38:24.787Z,100475.09
2022-08-31T03:40:52.821Z,100481.78
2022-08-31T03:43:21.720Z,100483.31
2022-08-31T03:45:49.854Z,100477.28
2022-08-31T03:48:18.012Z,100484.66
2022-08-31T03:50:46.260Z,100483.75
2022-08-31T03:53:23.094Z,100489.06
2022-08-31T03:55:54.200Z,100485.63
2022-08-31T03:58:22.172Z,100488.22
2022-08-31T04:00:49.748Z,100490.66
2022-08-31T04:03:37.632Z,100496.19
2022-08-31T04:06:23.618Z,100493.72
2022-08-31T04:09:14.300Z,100492.47
2022-08-31T04:12:00.213Z,100487.34
2022-08-31T04:14:46.259Z,100494.59
2022-08-31T04:17:35.979Z,100499.34
2022-08-31T04:20:26.536Z,100492.00
2022-08-31T04:22:58.249Z,100492.34
2022-08-31T04:25:39.185Z,100495.50
2022-08-31T04:28:09.310Z,100484.84
2022-08-31T04:30:38.704Z,100496.53
2022-08-31T04:33:06.355Z,100493.69
2022-08-31T04:35:34.402Z,100489.16
2022-08-31T04:38:02.168Z,100489.03
2022-08-31T04:40:30.781Z,100493.81
2022-08-31T04:43:00.166Z,100499.28
2022-08-31T04:45:28.346Z,100497.84
2022-08-31T04:47:55.860Z,100490.50
2022-08-31T04:50:23.307Z,100496.81
2022-08-31T04:53:08.320Z,100496.81
2022-08-31T04:55:41.158Z,100500.16
2022-08-31T04:58:10.031Z,100503.34
2022-08-31T05:00:38.457Z,100498.13
2022-08-31T05:03:30.929Z,100506.53
2022-08-31T05:05:58.612Z,100509.34
2022-08-31T05:08:28.005Z,100511.31
2022-08-31T05:10:55.623Z,100502.19
2022-08-31T05:13:23.239Z,100507.50
2022-08-31T05:15:51.079Z,100506.91
2022-08-31T05:18:22.655Z,100506.97
2022-08-31T05:20:56.266Z,100512.19
2022-08-31T05:23:24.306Z,100500.94
2022-08-31T05:25:51.784Z,100503.09
2022-08-31T05:28:23.667Z,100501.91
2022-08-31T05:30:51.513Z,100501.34
2022-08-31T05:33:34.835Z,100506.59
2022-08-31T05:36:02.935Z,100516.28
2022-08-31T05:38:30.616Z,100515.53
2022-08-31T05:41:01.215Z,100521.63
2022-08-31T05:43:28.914Z,100520.25
2022-08-31T05:45:56.384Z,100529.44
2022-08-31T05:48:29.907Z,100523.94
2022-08-31T05:51:00.771Z,100536.91
2022-08-31T05:53:28.319Z,100531.22
2022-08-31T05:55:59.867Z,100539.94
2022-08-31T05:58:27.758Z,100531.44
2022-08-31T06:00:55.312Z,100542.50
2022-08-31T06:03:45.451Z,100538.72
2022-08-31T06:06:13.247Z,100539.50
2022-08-31T06:08:41.061Z,100543.19
2022-08-31T06:11:14.433Z,100534.78
2022-08-31T06:13:43.413Z,100537.81
2022-08-31T06:16:10.889Z,100540.66
2022-08-31T06:18:38.783Z,100537.53
2022-08-31T06:21:10.887Z,100543.06
2022-08-31T06:23:39.063Z,100551.25
2022-08-31T06:26:06.991Z,100556.91
2022-08-31T06:28:36.219Z,100557.81
2022-08-31T06:31:12.374Z,100549.38
2022-08-31T06:33:40.295Z,100557.75
2022-08-31T06:36:18.104Z,100552.75
2022-08-31T06:39:13.237Z,100557.84
2022-08-31T06:42:07.186Z,100554.16
2022-08-31T06:44:53.647Z,100554.28
2022-08-31T06:47:24.354Z,100548.47
2022-08-31T06:49:53.761Z,100557.44
2022-08-31T06:52:21.860Z,100554.81
2022-08-31T06:55:05.022Z,100541.72
2022-08-31T06:57:52.701Z,100542.06
2022-08-31T07:00:39.288Z,100544.28
2022-08-31T07:03:35.969Z,100541.50
2022-08-31T07:06:04.772Z,100546.28
2022-08-31T07:08:32.574Z,100548.41
2022-08-31T07:11:01.183Z,100551.19
2022-08-31T07:13:28.815Z,100545.56
2022-08-31T07:16:04.066Z,100552.19
2022-08-31T07:18:32.639Z,100549.88
2022-08-31T07:21:08.230Z,100546.59
2022-08-31T07:23:36.381Z,100544.09
2022-08-31T07:26:11.843Z,100538.84
2022-08-31T07:28:39.660Z,100534.19
2022-08-31T07:31:07.263Z,100533.78
2022-08-31T07:33:43.788Z,100526.00
2022-08-31T07:36:12.829Z,100522.72
2022-08-31T07:39:14.977Z,100519.47
2022-08-31T07:42:04.985Z,100514.53
2022-08-31T07:44:34.823Z,100507.13
2022-08-31T07:47:06.409Z,100506.72
2022-08-31T07:49:37.048Z,100521.09
2022-08-31T07:52:16.242Z,100518.19
2022-08-31T07:55:07.995Z,100517.63
2022-08-31T07:57:55.596Z,100512.19
2022-08-31T08:00:24.521Z,100499.09
2022-08-31T08:02:53.092Z,100491.34
2022-08-31T08:05:27.530Z,100494.91
2022-08-31T08:08:32.349Z,100490.91
2022-08-31T08:11:25.566Z,100478.91
2022-08-31T08:14:08.494Z,100473.09
2022-08-31T08:16:54.912Z,100475.91
2022-08-31T08:19:35.059Z,100486.66
2022-08-31T08:22:06.884Z,100478.59
2022-08-31T08:24:52.091Z,100474.38
2022-08-31T08:27:36.353Z,100476.66
2022-08-31T08:30:22.925Z,100475.47
2022-08-31T08:32:50.602Z,100482.56
2022-08-31T08:35:18.305Z,100477.09
2022-08-31T08:37:59.059Z,100461.81
2022-08-31T08:40:32.458Z,100465.41
2022-08-31T08:43:02.500Z,100462.16
2022-08-31T08:45:29.998Z,100460.53
2022-08-31T08:47:57.532Z,100459.72
2022-08-31T08:50:28.147Z,100465.41
2022-08-31T08:52:56.821Z,100456.31
2022-08-31T08:55:27.168Z,100458.75
2022-08-31T08:57:56.172Z,100463.28
2022-08-31T09:00:25.157Z,100455.00
2022-08-31T09:03:02.075Z,100462.13
2022-08-31T09:06:09.736Z,100459.16
2022-08-31T09:08:59.687Z,100461.22
2022-08-31T09:11:35.752Z,100458.41
2022-08-31T09:14:15.504Z,100457.16
2022-08-31T09:16:56.370Z,100453.03
2022-08-31T09:19:24.473Z,100445.00
2022-08-31T09:21:53.631Z,100455.72
2022-08-31T09:24:27.620Z,100439.13
2022-08-31T09:27:36.983Z,100440.00
2022-08-31T09:30:06.177Z,100442.81
2022-08-31T09:32:35.805Z,100442.22
2022-08-31T09:35:03.175Z,100443.09
2022-08-31T09:37:38.279Z,100450.44
2022-08-31T09:40:23.241Z,100445.31
2022-08-31T09:43:05.333Z,100439.78
2022-08-31T09:45:41.827Z,100441.41
2022-08-31T09:48:10.098Z,100429.84
2022-08-31T09:50:47.077Z,100433.44
2022-08-31T09:53:38.754Z,100422.81
2022-08-31T09:56:15.777Z,100415.28
2022-08-31T09:58:53.360Z,100413.25
2022-08-31T10:01:27.292Z,100420.44
2022-08-31T10:04:27.882Z,100418.81
2022-08-31T10:07:07.013Z,100420.28
2022-08-31T10:09:39.479Z,100406.59
2022-08-31T10:12:14.177Z,100413.47
2022-08-31T10:14:52.662Z,100407.53
2022-08-31T10:17:26.376Z,100409.47
2022-08-31T10:20:08.100Z,100402.88
2022-08-31T10:22:37.279Z,100419.06
2022-08-31T10:25:06.870Z,100405.78
2022-08-31T10:27:38.603Z,100396.84
2022-08-31T10:30:11.899Z,100402.09
2022-08-31T10:32:41.048Z,100401.34
2022-08-31T10:35:29.358Z,100397.69
2022-08-31T10:38:08.601Z,100398.41
2022-08-31T10:40:43.896Z,100397.66
2022-08-31T10:43:19.269Z,100387.56
2022-08-31T10:45:49.432Z,100394.59
2022-08-31T10:48:17.661Z,100383.81
2022-08-31T10:50:57.433Z,100393.94
2022-08-31T10:53:39.898Z,100385.50
2022-08-31T10:56:12.840Z,100379.63
2022-08-31T10:59:09.811Z,100377.88
2022-08-31T11:01:43.936Z,100372.00
2022-08-31T11:04:44.206Z,100374.84
2022-08-31T11:07:14.870Z,100371.16
2022-08-31T11:09:55.112Z,100365.03
2022-08-31T11:12:27.360Z,100356.16
2022-08-31T11:15:10.831Z,100352.72
2022-08-31T11:17:38.402Z,100355.91
2022-08-31T11:20:29.445Z,100347.63
2022-08-31T11:23:05.801Z,100349.22
2022-08-31T11:25:34.919Z,100338.72
2022-08-31T11:28:12.858Z,100341.38
2022-08-31T11:30:50.520Z,100344.44
2022-08-31T11:33:19.859Z,100341.56
2022-08-31T11:35:57.360Z,100341.69
2022-08-31T11:38:48.008Z,100337.47
2022-08-31T11:41:33.625Z,100333.44
2022-08-31T11:44:04.839Z,100331.19
2022-08-31T11:46:47.519Z,100328.59
2022-08-31T11:49:34.765Z,100326.72
2022-08-31T11:52:05.742Z,100326.56
2022-08-31T11:54:42.171Z,100323.03
2022-08-31T11:57:15.838Z,100318.03
2022-08-31T11:59:46.400Z,100314.91
2022-08-31T12:02:20.100Z,100311.88
2022-08-31T12:04:52.359Z,100309.75
2022-08-31T12:07:25.005Z,100310.78
2022-08-31T12:10:02.385Z,100312.00
2022-08-31T12:12:39.196Z,100312.78
2022-08-31T12:15:07.846Z,100300.03
2022-08-31T12:17:54.091Z,100294.50
2022-08-31T12:20:27.583Z,100287.28
2022-08-31T12:23:30.088Z,100291.63
2022-08-31T12:26:01.598Z,100283.97
2022-08-31T12:28:37.383Z,100292.81
2022-08-31T12:31:07.470Z,100299.19
2022-08-31T12:33:35.791Z,100289.16
2022-08-31T12:36:13.117Z,100289.81
2022-08-31T12:38:40.722Z,100297.28
2022-08-31T12:41:09.864Z,100291.78
2022-08-31T12:43:44.352Z,100285.09
2022-08-31T12:46:30.706Z,100279.50
2022-08-31T12:49:10.478Z,100287.44
2022-08-31T12:51:50.083Z,100288.28
2022-08-31T12:54:37.440Z,100277.22
2022-08-31T12:57:05.000Z,100279.38
2022-08-31T12:59:59.828Z,100283.25
2022-08-31T13:02:29.451Z,100275.44
2022-08-31T13:04:58.032Z,100271.69
2022-08-31T13:07:29.782Z,100273.84
2022-08-31T13:10:08.163Z,100273.06
2022-08-31T13:12:37.109Z,100270.13
2022-08-31T13:15:05.195Z,100275.28
2022-08-31T13:17:35.270Z,100277.03
2022-08-31T13:20:03.180Z,100274.13
2022-08-31T13:22:31.791Z,100280.22
2022-08-31T13:25:14.344Z,100285.03
2022-08-31T13:27:51.589Z,100280.25
2022-08-31T13:30:20.313Z,100280.00
2022-08-31T13:32:52.608Z,100278.81
2022-08-31T13:35:21.195Z,100277.59
2022-08-31T13:37:52.751Z,100287.00
2022-08-31T13:40:23.909Z,100282.66
2022-08-31T13:42:56.501Z,100272.81
2022-08-31T13:45:27.684Z,100281.41
2022-08-31T13:47:57.609Z,100282.91
2022-08-31T13:50:28.022Z,100278.41
2022-08-31T13:53:22.977Z,100279.94
2022-08-31T13:55:44.395Z,100271.00
2022-08-31T13:58:30.764Z,100280.38
2022-08-31T14:01:19.091Z,100266.22
2022-08-31T14:03:52.171Z,100285.28
2022-08-31T14:06:26.617Z,100283.63
2022-08-31T14:09:17.658Z,100285.16
2022-08-31T14:12:01.144Z,100283.94
2022-08-31T14:14:35.679Z,100283.75
2022-08-31T14:17:03.768Z,100281.19
2022-08-31T14:19:32.282Z,100282.34
2022-08-31T14:22:18.665Z,100283.91
2022-08-31T14:24:46.172Z,100277.31
2022-08-31T14:27:15.925Z,100276.38
2022-08-31T14:29:43.326Z,100273.06
2022-08-31T14:32:10.802Z,100274.03
2022-08-31T14:34:45.265Z,100261.75
2022-08-31T14:37:16.596Z,100258.47
2022-08-31T14:39:46.251Z,100253.22
2022-08-31T14:42:17.404Z,100259.75
2022-08-31T14:44:53.913Z,100251.94
2022-08-31T14:47:23.733Z,100262.16
2022-08-31T14:49:51.633Z,100257.66
2022-08-31T14:52:19.075Z,100254.84
2022-08-31T14:54:47.810Z,100250.31
2022-08-31T14:57:22.350Z,100248.69
2022-08-31T14:59:52.328Z,100252.34
2022-08-31T15:02:21.463Z,100247.88
2022-08-31T15:04:49.168Z,100261.41
2022-08-31T15:07:16.718Z,100255.59
2022-08-31T15:09:46.902Z,100253.16
2022-08-31T15:12:15.314Z,100260.97
2022-08-31T15:14:44.876Z,100261.00
2022-08-31T15:17:18.842Z,100248.59
2022-08-31T15:19:48.226Z,100254.41
2022-08-31T15:22:16.196Z,100245.41
2022-08-31T15:24:46.619Z,100244.88
2022-08-31T15:27:15.288Z,100262.84
2022-08-31T15:29:45.671Z,100253.53
2022-08-31T15:32:16.741Z,100249.06
2022-08-31T15:34:58.299Z,100260.13
2022-08-31T15:37:27.503Z,100259.06
2022-08-31T15:39:59.900Z,100272.75
2022-08-31T15:42:27.459Z,100272.03
2022-08-31T15:44:58.070Z,100271.16
2022-08-31T15:47:44.641Z,100278.84
2022-08-31T15:50:12.199Z,100273.50
2022-08-31T15:52:49.733Z,100291.13
2022-08-31T15:55:21.842Z,100297.25
2022-08-31T15:57:49.630Z,100297.47
2022-08-31T16:00:17.244Z,100306.00
2022-08-31T16:02:44.950Z,100301.44
2022-08-31T16:05:12.780Z,100299.81
2022-08-31T16:07:40.473Z,100311.53
2022-08-31T16:10:15.604Z,100313.09
2022-08-31T16:12:47.741Z,100316.41
2022-08-31T16:15:18.173Z,100313.31
2022-08-31T16:17:45.612Z,100322.94
2022-08-31T16:20:13.278Z,100316.22
2022-08-31T16:22:42.123Z,100325.56
2022-08-31T16:25:11.719Z,100323.31
2022-08-31T16:27:41.028Z,100324.91
2022-08-31T16:30:09.210Z,100324.75
2022-08-31T16:32:37.567Z,100330.38
2022-08-31T16:35:05.756Z,100323.72
2022-08-31T16:37:33.445Z,100334.28
2022-08-31T16:40:00.988Z,100345.19
2022-08-31T16:42:28.739Z,100340.81
2022-08-31T16:45:01.279Z,100354.75
2022-08-31T16:47:29.766Z,100343.44
2022-08-31T16:49:59.089Z,100353.09
2022-08-31T16:52:27.588Z,100351.09
2022-08-31T16:54:56.035Z,100353.56
2022-08-31T16:57:27.282Z,100356.41
2022-08-31T16:59:55.589Z,100350.91
2022-08-31T17:02:23.631Z,100357.56
2022-08-31T17:04:52.948Z,100360.91
2022-08-31T17:07:22.180Z,100366.09
2022-08-31T17:09:49.586Z,100366.66
2022-08-31T17:12:17.714Z,100368.78
2022-08-31T17:14:47.171Z,100371.97
2022-08-31T17:17:15.652Z,100368.81
2022-08-31T17:19:44.356Z,100376.63
2022-08-31T17:22:16.966Z,100383.19
2022-08-31T17:24:47.459Z,100380.97
2022-08-31T17:27:16.577Z,100378.69
2022-08-31T17:29:44.782Z,100389.25
2022-08-31T17:32:13.855Z,100389.19
2022-08-31T17:34:41.935Z,100395.31
2022-08-31T17:37:13.298Z,100399.16
2022-08-31T17:39:42.026Z,100389.44
2022-08-31T17:42:09.644Z,100385.00
2022-08-31T17:44:39.041Z,100390.03
2022-08-31T17:47:09.688Z,100404.13
2022-08-31T17:49:42.121Z,100405.84
2022-08-31T17:52:12.306Z,100403.34
2022-08-31T17:54:42.145Z,100410.03
2022-08-31T17:57:12.229Z,100412.16
2022-08-31T17:59:42.185Z,100410.84
2022-08-31T18:02:11.247Z,100419.44
2022-08-31T18:04:39.426Z,100424.03
2022-08-31T18:07:07.193Z,100418.13
2022-08-31T18:09:36.506Z,100418.75
2022-08-31T18:12:04.004Z,100407.28
2022-08-31T18:14:31.987Z,100417.94
2022-08-31T18:17:00.155Z,100419.47
2022-08-31T18:19:28.350Z,100410.97
2022-08-31T18:21:56.392Z,100413.56
2022-08-31T18:24:23.981Z,100414.06
2022-08-31T18:26:51.811Z,100416.47
2022-08-31T18:29:24.338Z,100409.94
2022-08-31T18:31:54.277Z,100414.66
2022-08-31T18:34:22.863Z,100407.09
2022-08-31T18:36:51.334Z,100414.88
2022-08-31T18:39:34.823Z,100413.47
2022-08-31T18:42:27.787Z,100422.31
2022-08-31T18:45:13.856Z,100423.53
2022-08-31T18:47:41.741Z,100418.13
2022-08-31T18:50:09.447Z,100414.94
2022-08-31T18:52:47.563Z,100411.81
2022-08-31T18:55:16.130Z,100409.00
2022-08-31T18:57:48.536Z,100408.25
2022-08-31T19:00:16.803Z,100401.56
2022-08-31T19:02:46.144Z,100409.41
2022-08-31T19:05:13.964Z,100402.56
2022-08-31T19:07:41.550Z,100410.34
2022-08-31T19:10:12.884Z,100405.75
2022-08-31T19:12:42.882Z,100408.59
2022-08-31T19:15:11.311Z,100404.31
2022-08-31T19:17:40.282Z,100410.34
2022-08-31T19:20:10.297Z,100406.09
2022-08-31T19:22:38.145Z,100400.06
2022-08-31T19:25:08.025Z,100396.16
2022-08-31T19:27:37.970Z,100404.34
2022-08-31T19:30:06.151Z,100402.31
2022-08-31T19:32:34.409Z,100396.53
2022-08-31T19:35:02.546Z,100391.53
2022-08-31T19:37:30.036Z,100402.44
2022-08-31T19:39:57.504Z,100388.75
2022-08-31T19:45:40.872Z,100394.75
2022-08-31T19:48:06.449Z,100391.56
2022-08-31T19:50:41.531Z,100390.84
2022-08-31T19:53:14.127Z,100401.59
2022-08-31T19:55:51.546Z,100397.09
2022-08-31T19:58:19.746Z,100404.59
2022-08-31T20:00:48.299Z,100400.47
2022-08-31T20:03:16.395Z,100397.13
2022-08-31T20:05:44.794Z,100402.44
2022-08-31T20:08:12.560Z,100398.28
2022-08-31T20:10:41.971Z,100405.88
2022-08-31T20:13:12.505Z,100405.59
2022-08-31T20:15:41.467Z,100396.53
2022-08-31T20:18:11.390Z,100398.53
2022-08-31T20:20:41.041Z,100395.28
2022-08-31T20:23:08.733Z,100406.06
2022-08-31T20:25:37.311Z,100401.81
2022-08-31T20:28:07.319Z,100397.00
2022-08-31T20:30:36.767Z,100390.84
2022-08-31T20:33:04.493Z,100390.19
2022-08-31T20:35:41.682Z,100393.44
2022-08-31T20:38:12.076Z,100382.47
2022-08-31T20:40:39.722Z,100381.97
2022-08-31T20:43:10.808Z,100377.91
2022-08-31T20:45:38.612Z,100376.50
2022-08-31T20:48:24.594Z,100381.63
2022-08-31T20:50:52.918Z,100385.66
2022-08-31T20:53:25.015Z,100377.34
2022-08-31T20:56:09.168Z,100373.84
2022-08-31T20:58:36.596Z,100378.53
2022-08-31T21:01:07.862Z,100382.69
2022-08-31T21:03:35.454Z,100391.81
2022-08-31T21:06:03.849Z,100383.31
2022-08-31T21:08:31.431Z,100396.28
2022-08-31T21:11:00.029Z,100390.53
2022-08-31T21:13:27.451Z,100404.09
2022-08-31T21:15:55.004Z,100396.22
2022-08-31T21:18:23.553Z,100400.06
2022-08-31T21:20:52.134Z,100398.06
2022-08-31T21:23:19.708Z,100399.50
2022-08-31T21:25:47.637Z,100392.63
2022-08-31T21:28:17.559Z,100389.75
2022-08-31T21:30:47.286Z,100395.25
2022-08-31T21:33:14.690Z,100387.72
2022-08-31T21:35:42.646Z,100384.41
2022-08-31T21:38:13.387Z,100384.38
2022-08-31T21:40:46.995Z,100380.22
2022-08-31T21:43:14.912Z,100377.44
2022-08-31T21:45:42.316Z,100374.13
2022-08-31T21:48:09.957Z,100371.28
2022-08-31T21:50:37.335Z,100375.56
2022-08-31T21:53:04.782Z,100380.41
2022-08-31T21:55:32.443Z,100379.19
2022-08-31T21:58:01.651Z,100367.22
2022-08-31T22:00:29.595Z,100364.38
2022-08-31T22:02:58.587Z,100353.88
2022-08-31T22:05:26.058Z,100358.00
2022-08-31T22:07:53.492Z,100355.97
2022-08-31T22:10:21.367Z,100364.72
2022-08-31T22:12:48.757Z,100363.50
2022-08-31T22:15:20.445Z,100370.22
2022-08-31T22:18:11.499Z,100364.78
2022-08-31T22:20:36.851Z,100367.38
2022-08-31T22:23:09.189Z,100365.06
2022-08-31T22:25:37.185Z,100364.78
